Latest Weather Observations for Rolleston Airport

IDQ60801

Issued at 5:32 pm EST Tuesday 9 February 2016 (issued every 30 minutes, with the page automatically refreshed every 10 minutes)

About weather observations | Map of weather stations | Latest weather observations for QLD | Other Formats
Station Details ID: 035129 Name: ROLLESTON AIRPORT Lat: -24.46 Lon: 148.63 Height: 219.45 m
Data from the previous 72 hours. | See also: Recent months at Rolleston Airport
Date/Time
EST
Temp
°C
App
Temp
°C
Dew
Point
Rel
Hum
%
Delta-T
°C
Wind Press
QNH
hPa
Press
MSL
hPa
Rain
since 9 am
mm
Dir
 
Spd
km/h
Gust
km/h
Spd
kts
Gust
kts
09/05:30pm 29.5 27.7 14.5 40 9.2 SE 17 22 9 12 1011.3 1009.9 0.0
09/05:00pm 30.1 28.2 14.2 38 9.7 SE 17 22 9 12 1011.1 1009.7 0.0
09/04:30pm 30.5 29.0 15.4 40 9.4 SE 17 24 9 13 1011.1 1009.7 0.0
09/04:00pm 30.6 29.0 15.1 39 9.6 SE 17 24 9 13 1011.2 1009.8 0.0
09/03:30pm 30.4 29.1 15.7 41 9.2 SE 17 30 9 16 1011.4 1010.0 0.0
09/03:00pm 30.7 29.2 15.2 39 9.6 SE 17 30 9 16 1011.7 1010.3 0.0
09/02:30pm 31.1 29.3 15.9 40 9.5 ESE 20 30 11 16 1012.2 1010.7 0.0
09/02:00pm 30.5 28.8 15.8 41 9.2 ESE 19 30 10 16 1012.7 1011.2 0.0
09/01:30pm 29.6 28.1 16.4 45 8.3 SE 19 33 10 18 1013.0 1011.5 0.0
09/01:00pm 30.5 28.9 16.1 41 9.0 ESE 19 35 10 19 1013.3 1011.8 0.0
09/12:30pm 28.6 27.9 16.5 48 7.6 ESE 15 22 8 12 1013.6 1012.1 0.0
09/12:00pm 27.6 26.4 16.2 49 7.1 SE 17 26 9 14 1014.1 1012.7 0.0
09/11:30am 28.1 27.3 17.0 51 7.0 SE 17 26 9 14 1014.5 1013.1 0.0
09/11:00am 27.1 27.1 17.3 55 6.2 SE 13 22 7 12 1014.8 1013.4 0.0
09/10:30am 26.6 27.2 17.7 58 5.7 ESE 11 26 6 14 1015.2 1013.8 0.0
09/10:00am 26.3 25.3 16.5 54 6.1 SE 17 28 9 15 1015.5 1014.1 0.0
09/09:30am 25.5 24.1 16.6 58 5.5 SE 19 24 10 13 1015.7 1014.3 0.0
09/09:00am 25.4 23.7 17.1 60 5.2 SE 22 32 12 17 1015.7 1014.3 0.0
09/08:30am 25.1 23.4 17.3 62 4.9 ESE 22 30 12 16 1015.5 1014.1 0.0
09/08:00am 24.2 23.1 17.7 67 4.1 ESE 20 28 11 15 1015.5 1014.1 0.0
09/07:30am 23.0 23.0 18.1 74 3.1 SE 15 22 8 12 1015.2 1013.8 0.0
09/07:00am 22.5 24.3 19.5 83 1.9 SSE 9 13 5 7 1014.9 1013.5 0.0
09/06:30am 21.6 23.8 19.3 87 1.5 SE 6 7 3 4 1014.5 1013.1 0.0
09/06:00am 21.0 23.0 19.1 89 1.2 ESE 7 9 4 5 1014.1 1012.7 0.0
09/05:30am 21.3 23.2 18.9 86 1.5 ESE 7 9 4 5 1013.7 1012.2 0.0
09/05:00am 21.6 23.6 19.2 86 1.5 ESE 7 11 4 6 1013.4 1011.9 0.0
09/04:30am 21.7 23.8 19.4 87 1.5 ESE 7 9 4 5 1013.1 1011.6 0.0
09/04:00am 21.7 24.0 19.4 87 1.5 ESE 6 6 3 3 1012.9 1011.4 0.0
09/03:30am 22.4 25.3 19.8 85 1.7 E 4 6 2 3 1012.6 1011.1 0.0
09/03:00am 22.6 24.9 19.8 84 1.8 E 7 9 4 5 1012.6 1011.1 0.0
09/02:30am 22.8 25.1 19.8 83 1.9 E 7 9 4 5 1012.4 1010.9 0.0
09/02:00am 23.2 25.6 19.6 80 2.3 NE 6 11 3 6 1012.5 1011.0 0.0
09/01:30am 23.6 25.8 19.3 77 2.8 E 6 9 3 5 1012.5 1011.0 0.0
09/01:00am 24.3 26.0 19.4 74 3.2 E 9 13 5 7 1012.5 1011.0 0.0
09/12:30am 23.9 26.5 20.0 79 2.5 ESE 6 6 3 3 1012.7 1011.2 0.0
09/12:00am 23.8 27.2 20.9 84 1.9 SE 4 6 2 3 1013.0 1011.5 0.0
 
Date/Time
EST
Temp
°C
App
Temp
°C
Dew
Point
Rel
Hum
%
Delta-T
°C
Wind Press
QNH
hPa
Press
MSL
hPa
Rain
since 9 am
mm
Dir
 
Spd
km/h
Gust
km/h
Spd
kts
Gust
kts
08/11:30pm 23.7 26.8 21.0 85 1.8 SE 6 6 3 3 1013.1 1011.6 0.0
08/11:00pm 23.7 26.6 20.6 83 2.0 SSE 6 6 3 3 1013.1 1011.6 0.0
08/10:30pm 24.0 26.8 20.5 81 2.3 SSE 6 6 3 3 1013.2 1011.7 0.0
08/10:00pm 24.7 27.4 20.2 76 2.9 SSE 6 6 3 3 1013.1 1011.6 0.0
08/09:30pm 26.0 29.0 20.1 70 3.9 S 4 7 2 4 1013.2 1011.7 0.0
08/09:00pm 26.7 29.9 20.5 69 4.1 S 4 6 2 3 1013.2 1011.7 0.0
08/08:30pm 26.9 30.1 20.5 68 4.2 S 4 6 2 3 1012.9 1011.4 0.0
08/08:00pm 27.2 30.5 20.8 68 4.3 E 4 4 2 2 1012.6 1011.1 0.0
08/07:30pm 27.4 30.6 20.5 66 4.6 SE 4 4 2 2 1012.5 1011.0 0.0
08/07:00pm 28.1 30.6 19.9 61 5.4 NE 6 7 3 4 1012.3 1010.8 0.0
08/06:30pm 28.7 30.7 19.1 56 6.3 ENE 7 9 4 5 1011.9 1010.4 0.0
08/06:00pm 29.0 30.3 18.4 52 6.9 SE 9 15 5 8 1011.4 1010.0 0.0
08/05:30pm 29.1 31.1 19.1 54 6.5 SSE 7 13 4 7 1011.2 1009.8 0.0
08/05:00pm 29.4 30.9 18.8 53 6.9 SSE 9 13 5 7 1011.0 1009.6 0.0
08/04:30pm 29.7 30.3 18.5 51 7.3 S 13 20 7 11 1010.8 1009.4 0.0
08/04:00pm 29.9 29.1 18.0 48 7.7 S 19 24 10 13 1010.8 1009.4 0.0
08/03:30pm 30.2 30.9 18.9 50 7.4 S 13 19 7 10 1010.8 1009.4 0.0
08/03:00pm 30.6 29.7 17.7 46 8.3 SSE 19 28 10 15 1011.0 1009.6 0.0
08/02:30pm 30.9 30.5 18.9 48 7.9 SE 19 28 10 15 1011.5 1010.1 0.0
08/02:00pm 30.8 31.4 19.5 51 7.5 SE 15 30 8 16 1012.2 1010.7 0.0
08/01:30pm 29.2 29.9 18.9 53 6.7 SSE 13 22 7 12 1012.8 1011.3 0.0
08/01:00pm 28.7 30.1 19.6 58 6.0 S 11 17 6 9 1013.2 1011.7 0.0
08/12:30pm 28.6 29.4 19.0 56 6.3 ESE 13 20 7 11 1013.7 1012.2 0.0
08/12:00pm 27.9 29.9 19.9 61 5.3 SE 9 19 5 10 1014.0 1012.6 0.0
08/11:30am 27.3 28.5 19.9 64 4.9 SE 13 22 7 12 1014.5 1013.1 0.0
08/11:00am 26.9 28.5 20.0 66 4.5 SE 11 19 6 10 1014.7 1013.3 0.0
08/10:30am 26.6 27.6 19.5 65 4.6 ESE 13 22 7 12 1014.9 1013.5 0.0
08/10:00am 26.4 28.2 20.3 69 4.0 ESE 11 19 6 10 1015.0 1013.6 0.0
08/09:30am 25.7 26.4 19.6 69 4.0 ESE 15 19 8 10 1014.9 1013.5 0.0
08/09:00am 25.1 25.1 19.7 72 3.5 ESE 19 24 10 13 1014.9 1013.5 5.4
08/08:30am 24.5 25.3 20.6 79 2.6 SE 17 24 9 13 1014.9 1013.5 5.4
08/08:00am 23.0 25.0 21.5 91 1.0 SSE 13 19 7 10 1014.8 1013.4 5.4
08/07:30am 22.2 25.4 21.7 97 0.3 S 7 15 4 8 1014.6 1013.2 5.4
08/07:00am 21.7 24.8 21.4 98 0.2 S 7 13 4 7 1014.6 1013.2 5.4
08/06:30am 21.5 24.5 21.3 99 0.1 S 7 11 4 6 1014.5 1013.1 5.4
08/06:00am 21.4 24.6 21.2 99 0.1 SSE 6 9 3 5 1014.2 1012.8 5.0
08/05:30am 21.4 22.8 21.1 98 0.2 SE 15 20 8 11 1014.0 1012.6 4.6
08/05:00am 21.6 22.9 20.9 96 0.5 SE 15 20 8 11 1013.7 1012.2 3.2
08/04:30am 21.7 23.0 20.9 95 0.5 SE 15 20 8 11 1013.4 1011.9 3.2
08/04:00am 21.8 23.3 21.3 97 0.3 SSE 15 20 8 11 1013.2 1011.7 3.2
08/03:30am 22.0 24.4 21.5 97 0.3 SSE 11 17 6 9 1013.0 1011.5 3.2
08/03:00am 22.0 25.4 22.0 100 0.0 S 7 13 4 7 1013.0 1011.5 3.0
08/02:30am 22.1 25.6 21.9 99 0.1 SSE 6 9 3 5 1013.2 1011.7 2.6
08/02:00am 22.0 25.5 21.8 99 0.1 SE 6 9 3 5 1013.4 1011.9 1.8
08/01:30am 22.1 25.0 21.8 98 0.2 SSE 9 11 5 6 1013.6 1012.1 1.0
08/01:00am 22.1 24.8 21.4 96 0.5 SSE 9 11 5 6 1013.9 1012.4 0.6
08/12:30am 22.4 25.0 21.2 93 0.8 SSE 9 13 5 7 1014.2 1012.8 0.4
08/12:00am 22.4 25.0 21.2 93 0.8 S 9 13 5 7 1014.3 1012.9 0.4
 
Date/Time
EST
Temp
°C
App
Temp
°C
Dew
Point
Rel
Hum
%
Delta-T
°C
Wind Press
QNH
hPa
Press
MSL
hPa
Rain
since 9 am
mm
Dir
 
Spd
km/h
Gust
km/h
Spd
kts
Gust
kts
07/11:30pm 22.5 24.9 20.8 90 1.1 S 9 13 5 7 1014.4 1013.0 0.4
07/11:00pm 22.8 24.9 20.9 89 1.2 SSE 11 17 6 9 1014.4 1013.0 0.4
07/10:30pm 22.8 25.0 21.1 90 1.1 SSE 11 15 6 8 1014.3 1012.9 0.4
07/10:00pm 23.0 24.9 21.3 90 1.1 SSE 13 19 7 10 1014.3 1012.9 0.4
07/09:30pm 23.1 24.7 21.4 90 1.1 SSE 15 20 8 11 1014.0 1012.6 0.4
07/09:00pm 23.2 26.2 22.0 93 0.8 SSE 9 17 5 9 1013.5 1012.0 0.4
07/08:30pm 23.1 25.8 22.1 94 0.7 SSE 11 17 6 9 1013.2 1011.7 0.4
07/08:00pm 23.0 25.8 22.3 96 0.5 SSE 11 19 6 10 1012.9 1011.4 0.4
07/07:30pm 23.0 25.0 22.3 96 0.5 SSE 15 20 8 11 1012.5 1011.0 0.4
07/07:00pm 23.4 26.0 22.6 95 0.5 SSE 13 19 7 10 1012.2 1010.7 0.4
07/06:30pm 23.7 27.1 22.7 94 0.7 SSE 9 15 5 8 1011.7 1010.3 0.2
07/06:00pm 24.0 26.8 22.3 90 1.1 S 11 17 6 9 1011.2 1009.8 0.0
07/05:30pm 24.4 28.0 22.3 88 1.4 S 7 11 4 6 1010.7 1009.3 0.0
07/05:00pm 25.8 28.1 22.1 80 2.5 SSE 13 19 7 10 1010.3 1008.9 0.0
07/04:30pm 26.4 28.7 22.0 77 3.0 SSE 13 19 7 10 1010.1 1008.7 0.0
07/04:00pm 26.2 27.8 21.4 75 3.2 SSE 15 24 8 13 1010.2 1008.8 0.0
07/03:30pm 25.7 28.1 22.2 81 2.4 S 13 19 7 10 1010.1 1008.7 0.0
07/03:00pm 25.3 27.0 21.6 80 2.5 SSE 15 19 8 10 1010.2 1008.8 0.0
07/02:30pm 25.7 27.7 21.6 78 2.7 SSE 13 22 7 12 1010.4 1009.0 0.0
07/02:00pm 26.7 27.4 20.5 69 4.1 SE 17 24 9 13 1010.6 1009.2 0.0
07/01:30pm 26.3 26.7 20.6 71 3.8 ESE 19 30 10 16 1010.8 1009.4 0.0
07/01:00pm 26.6 27.0 20.9 71 3.8 SE 20 28 11 15 1010.9 1009.5 0.0
07/12:30pm 26.8 27.4 21.1 71 3.8 SE 19 26 10 14 1011.1 1009.7 0.0
07/12:00pm 26.7 26.8 21.2 72 3.7 SE 22 35 12 19 1011.5 1010.1 0.0
07/11:30am 25.9 27.4 21.3 76 3.1 ESE 15 22 8 12 1011.9 1010.4 0.0
07/11:00am 24.9 25.3 20.6 77 2.8 E 19 28 10 15 1012.2 1010.7 0.0
07/10:30am 24.3 24.5 20.2 78 2.7 ESE 19 24 10 13 1012.4 1010.9 0.0
07/10:00am 23.9 24.9 21.0 84 1.9 SE 17 28 9 15 1012.2 1010.7 0.0
07/09:30am 22.8 24.7 22.0 95 0.5 SE 15 19 8 10 1012.3 1010.8 0.0
07/09:00am 22.0 23.8 21.2 95 0.5 SSE 13 17 7 9 1012.3 1010.8 1.6
07/08:30am 21.6 24.6 20.9 96 0.5 S 6 9 3 5 1012.2 1010.7 1.6
07/08:00am 21.4 24.1 20.7 96 0.5 S 7 9 4 5 1012.0 1010.5 1.6
07/07:30am 21.1 23.7 20.4 96 0.5 SSE 7 9 4 5 1012.0 1010.5 1.6
07/07:00am 21.0 23.4 20.0 94 0.6 S 7 13 4 7 1011.7 1010.3 1.4
07/06:30am 21.1 22.9 19.6 91 1.0 S 9 13 5 7 1011.5 1010.1 1.2
07/06:00am 21.0 22.8 19.5 91 1.0 S 9 13 5 7 1011.0 1009.6 1.2
07/05:30am 20.8 23.0 19.5 92 0.8 S 7 9 4 5 1010.5 1009.1 1.2
07/05:00am 20.7 22.4 19.4 92 0.8 S 9 13 5 7 1010.1 1008.7 1.2
07/04:30am 20.8 23.0 19.5 92 0.8 S 7 11 4 6 1009.9 1008.5 1.2
07/04:00am 20.8 22.9 19.3 91 1.0 S 7 11 4 6 1009.8 1008.3 1.2
07/03:30am 21.1 22.7 19.2 89 1.2 S 9 15 5 8 1009.8 1008.3 1.2
07/03:00am 21.2 21.7 19.3 89 1.2 SSE 15 22 8 12 1009.8 1008.3 1.2
07/02:30am 21.1 22.1 19.4 90 1.1 SE 13 19 7 10 1009.6 1008.1 1.2
07/02:00am 21.3 21.4 19.2 88 1.3 SE 17 26 9 14 1009.9 1008.5 1.2
07/01:30am 21.5 21.7 19.4 88 1.3 SE 17 24 9 13 1010.0 1008.6 1.0
07/01:00am 21.5 21.8 19.6 89 1.2 SE 17 24 9 13 1010.1 1008.7 1.0
07/12:30am 21.5 21.9 19.8 90 1.1 SE 17 26 9 14 1010.5 1009.1 1.0
07/12:00am 21.6 22.2 20.2 92 0.9 SE 17 22 9 12 1010.6 1009.2 1.0
 
Date/Time
EST
Temp
°C
App
Temp
°C
Dew
Point
Rel
Hum
%
Delta-T
°C
Wind Press
QNH
hPa
Press
MSL
hPa
Rain
since 9 am
mm
Dir
 
Spd
km/h
Gust
km/h
Spd
kts
Gust
kts
06/11:30pm 21.9 21.9 20.2 90 1.1 ESE 20 28 11 15 1010.6 1009.2 0.8
06/11:00pm 22.2 23.3 20.5 90 1.1 ESE 15 22 8 12 1010.8 1009.4 0.6
06/10:30pm 22.3 23.2 20.8 91 1.0 ESE 17 24 9 13 1010.8 1009.4 0.6
06/10:00pm 22.4 23.5 21.2 93 0.8 ESE 17 24 9 13 1010.6 1009.2 0.6
06/09:30pm 22.5 24.0 21.3 93 0.8 SE 15 19 8 10 1010.3 1008.9 0.4
06/09:00pm 22.9 24.1 21.4 91 1.0 SE 17 22 9 12 1010.1 1008.7 0.4
06/08:30pm 22.9 25.8 21.7 93 0.8 SE 9 13 5 7 1009.7 1008.2 0.4
06/08:00pm 22.9 24.5 21.4 91 1.0 ESE 15 20 8 11 1009.5 1008.0 0.4
06/07:30pm 23.6 25.2 21.5 88 1.4 SE 15 19 8 10 1009.1 1007.6 0.2
06/07:00pm 23.7 25.5 21.8 89 1.3 SE 15 17 8 9 1008.5 1007.0 0.2
06/06:30pm 23.7 25.0 21.6 88 1.4 ESE 17 20 9 11 1008.1 1006.6 0.2
06/06:00pm 24.5 26.5 21.6 84 1.9 SE 13 17 7 9 1007.7 1006.2 0.2

Other Formats:

Comma delimited format used in spreadsheet applications
http://www.bom.gov.au/fwo/IDQ60801/IDQ60801.94396.axf

JavaScript Object Notation format (JSON) in row-major order
http://www.bom.gov.au/fwo/IDQ60801/IDQ60801.94396.json